createdAt,value
2017-09-10T00:01:21.094Z,77.10
2017-09-10T00:03:49.485Z,76.90
2017-09-10T00:06:17.076Z,76.90
2017-09-10T00:08:44.693Z,76.90
2017-09-10T00:11:13.068Z,76.30
2017-09-10T00:13:41.459Z,76.70
2017-09-10T00:16:09.053Z,76.70
2017-09-10T00:18:36.699Z,76.60
2017-09-10T00:21:04.301Z,76.30
2017-09-10T00:23:31.937Z,76.80
2017-09-10T00:25:59.515Z,77.10
2017-09-10T00:28:27.136Z,77.80
2017-09-10T00:30:54.727Z,78.70
2017-09-10T00:33:22.350Z,78.50
2017-09-10T00:35:50.716Z,78.20
2017-09-10T00:38:19.105Z,78.00
2017-09-10T00:40:46.700Z,78.00
2017-09-10T00:43:14.298Z,78.20
2017-09-10T00:45:41.913Z,78.40
2017-09-10T00:48:09.530Z,78.80
2017-09-10T00:50:37.916Z,78.50
2017-09-10T00:53:06.286Z,78.80
2017-09-10T00:55:35.486Z,78.00
2017-09-10T00:58:03.847Z,76.70
2017-09-10T01:00:31.470Z,76.70
2017-09-10T01:02:59.059Z,76.80
2017-09-10T01:05:26.689Z,76.60
2017-09-10T01:07:54.285Z,76.60
2017-09-10T01:10:21.897Z,77.80
2017-09-10T01:12:49.504Z,78.10
2017-09-10T01:15:17.138Z,78.10
2017-09-10T01:17:44.732Z,78.30
2017-09-10T01:20:12.376Z,78.20
2017-09-10T01:22:39.960Z,78.40
2017-09-10T01:25:08.348Z,78.30
2017-09-10T01:27:37.656Z,76.70
2017-09-10T01:30:06.019Z,76.20
2017-09-10T01:32:34.409Z,76.60
2017-09-10T01:35:02.765Z,77.80
2017-09-10T01:37:30.397Z,76.90
2017-09-10T01:39:58.003Z,76.80
2017-09-10T01:42:26.397Z,78.50
2017-09-10T01:44:53.996Z,77.80
2017-09-10T01:47:21.612Z,78.70
2017-09-10T01:49:49.989Z,79.00
2017-09-10T01:52:18.389Z,78.40
2017-09-10T01:54:45.993Z,78.40
2017-09-10T01:57:13.604Z,78.60
2017-09-10T01:59:41.198Z,78.50
2017-09-10T02:02:08.834Z,79.40
2017-09-10T02:04:36.420Z,79.60
2017-09-10T02:07:04.057Z,79.80
2017-09-10T02:09:31.653Z,80.00
2017-09-10T02:11:59.267Z,79.20
2017-09-10T02:14:26.860Z,78.40
2017-09-10T02:16:54.487Z,78.30
2017-09-10T02:19:22.845Z,78.10
2017-09-10T02:21:51.237Z,78.10
2017-09-10T02:24:19.606Z,77.90
2017-09-10T02:26:47.963Z,77.60
2017-09-10T02:29:15.575Z,77.60
2017-09-10T02:31:43.193Z,78.00
2017-09-10T02:34:10.828Z,78.20
2017-09-10T02:36:38.427Z,79.00
2017-09-10T02:39:06.808Z,78.30
2017-09-10T02:41:34.414Z,78.20
2017-09-10T02:44:02.034Z,78.10
2017-09-10T02:46:30.406Z,77.90
2017-09-10T02:48:58.802Z,78.00
2017-09-10T02:51:26.419Z,78.00
2017-09-10T02:53:54.041Z,78.10
2017-09-10T02:56:21.631Z,77.70
2017-09-10T02:58:49.256Z,77.10
2017-09-10T03:01:16.849Z,77.50
2017-09-10T03:03:44.466Z,77.60
2017-09-10T03:06:12.087Z,77.50
2017-09-10T03:08:39.717Z,77.60
2017-09-10T03:11:07.308Z,77.60
2017-09-10T03:13:34.935Z,77.50
2017-09-10T03:16:02.548Z,77.50
2017-09-10T03:18:30.912Z,77.40
2017-09-10T03:20:58.540Z,77.30
2017-09-10T03:23:26.147Z,77.10
2017-09-10T03:25:54.525Z,78.40
2017-09-10T03:28:22.888Z,77.20
2017-09-10T03:30:50.505Z,77.20
2017-09-10T03:33:18.096Z,76.80
2017-09-10T03:35:45.720Z,76.90
2017-09-10T03:38:13.303Z,76.70
2017-09-10T03:40:40.937Z,77.20
2017-09-10T03:43:08.537Z,77.20
2017-09-10T03:45:36.153Z,76.80
2017-09-10T03:48:03.753Z,76.90
2017-09-10T03:50:31.372Z,76.60
2017-09-10T03:52:58.963Z,76.90
2017-09-10T03:55:26.601Z,77.80
2017-09-10T03:57:54.187Z,78.20
2017-09-10T04:00:21.798Z,77.80
2017-09-10T04:02:50.159Z,77.80
2017-09-10T04:05:18.552Z,77.90
2017-09-10T04:07:46.160Z,77.80
2017-09-10T04:10:13.795Z,77.40
2017-09-10T04:12:41.388Z,77.10
2017-09-10T04:15:08.984Z,77.20
2017-09-10T04:17:37.371Z,77.40
2017-09-10T04:20:05.736Z,76.90
2017-09-10T04:22:34.160Z,77.20
2017-09-10T04:25:01.765Z,77.20
2017-09-10T04:27:29.394Z,77.50
2017-09-10T04:29:57.036Z,77.90
2017-09-10T04:32:24.664Z,77.20
2017-09-10T04:34:52.262Z,77.00
2017-09-10T04:37:19.884Z,77.30
2017-09-10T04:39:47.481Z,77.60
2017-09-10T04:42:15.115Z,78.30
2017-09-10T04:44:43.481Z,77.80
2017-09-10T04:47:11.114Z,77.80
2017-09-10T04:49:38.714Z,77.90
2017-09-10T04:52:07.100Z,77.40
2017-09-10T04:54:34.759Z,77.40
2017-09-10T04:57:03.240Z,76.80
2017-09-10T04:59:31.620Z,77.90
2017-09-10T05:02:00.004Z,78.00
2017-09-10T05:04:28.398Z,78.30
2017-09-10T05:06:56.047Z,78.20
2017-09-10T05:09:24.432Z,78.50
2017-09-10T05:11:52.067Z,78.50
2017-09-10T05:14:20.484Z,78.00
2017-09-10T05:16:48.105Z,78.30
2017-09-10T05:19:15.752Z,78.60
2017-09-10T05:21:43.344Z,78.80
2017-09-10T05:24:11.721Z,77.40
2017-09-10T05:26:40.114Z,76.80
2017-09-10T05:29:07.750Z,76.60
2017-09-10T05:31:35.347Z,76.90
2017-09-10T05:34:02.976Z,76.80
2017-09-10T05:36:31.366Z,76.90
2017-09-10T05:38:59.782Z,77.60
2017-09-10T05:41:27.395Z,77.60
2017-09-10T05:43:55.024Z,77.60
2017-09-10T05:46:22.617Z,77.60
2017-09-10T05:48:51.018Z,77.70
2017-09-10T05:51:19.397Z,78.40
2017-09-10T05:53:47.793Z,78.80
2017-09-10T05:56:15.417Z,78.80
2017-09-10T05:58:43.035Z,78.00
2017-09-10T06:01:10.663Z,77.90
2017-09-10T06:03:39.034Z,77.50
2017-09-10T06:06:07.433Z,77.40
2017-09-10T06:08:35.049Z,77.40
2017-09-10T06:11:02.779Z,77.10
2017-09-10T06:13:30.411Z,77.10
2017-09-10T06:15:58.041Z,76.90
2017-09-10T06:18:25.654Z,76.50
2017-09-10T06:20:53.290Z,77.40
2017-09-10T06:23:21.639Z,77.20
2017-09-10T06:25:49.276Z,77.10
2017-09-10T06:28:16.889Z,77.40
2017-09-10T06:30:45.295Z,76.30
2017-09-10T06:33:12.945Z,76.30
2017-09-10T06:35:40.579Z,76.00
2017-09-10T06:38:08.963Z,73.70
2017-09-10T06:40:36.594Z,73.70
2017-09-10T06:43:04.219Z,73.00
2017-09-10T06:45:31.845Z,71.40
2017-09-10T06:48:00.222Z,67.60
2017-09-10T06:50:28.612Z,64.80
2017-09-10T06:52:56.209Z,64.70
2017-09-10T06:55:23.821Z,60.90
2017-09-10T06:57:52.239Z,56.10
2017-09-10T07:00:19.828Z,56.10
2017-09-10T07:02:47.457Z,54.10
2017-09-10T07:05:15.062Z,51.40
2017-09-10T07:07:42.687Z,50.80
2017-09-10T07:10:10.296Z,49.70
2017-09-10T07:12:38.685Z,52.00
2017-09-10T07:15:07.043Z,54.00
2017-09-10T07:17:34.670Z,53.90
2017-09-10T07:20:02.270Z,51.90
2017-09-10T07:22:30.696Z,46.70
2017-09-10T07:24:58.304Z,46.70
2017-09-10T07:27:25.940Z,43.30
2017-09-10T07:29:54.060Z,40.90
2017-09-10T07:32:22.459Z,37.70
2017-09-10T07:34:50.485Z,37.60
2017-09-10T07:37:18.094Z,36.40
2017-09-10T07:39:45.697Z,34.30
2017-09-10T07:42:13.334Z,35.10
2017-09-10T07:44:40.937Z,37.50
2017-09-10T07:47:09.303Z,34.20
2017-09-10T07:49:36.939Z,34.20
2017-09-10T07:52:04.567Z,34.90
2017-09-10T07:54:32.194Z,33.20
2017-09-10T07:56:59.799Z,33.30
2017-09-10T07:59:28.131Z,33.50
2017-09-10T08:01:55.786Z,32.70
2017-09-10T08:04:26.332Z,33.20
2017-09-10T08:06:53.933Z,35.00
2017-09-10T08:09:21.564Z,37.00
2017-09-10T08:11:49.942Z,42.20
2017-09-10T08:14:17.570Z,42.20
2017-09-10T08:16:45.292Z,44.90
2017-09-10T08:19:12.921Z,48.30
2017-09-10T08:21:41.403Z,49.30
2017-09-10T08:24:09.184Z,49.10
2017-09-10T08:26:37.555Z,51.30
2017-09-10T08:29:06.001Z,51.30
2017-09-10T08:31:33.596Z,51.20
2017-09-10T08:34:01.993Z,53.30
2017-09-10T08:36:29.613Z,53.20
2017-09-10T08:38:57.259Z,55.30
2017-09-10T08:41:24.867Z,57.30
2017-09-10T08:43:53.254Z,60.00
2017-09-10T08:46:20.890Z,60.00
2017-09-10T08:48:49.257Z,58.00
2017-09-10T08:51:16.903Z,58.00
2017-09-10T08:53:44.581Z,59.20
2017-09-10T08:56:12.204Z,60.10
2017-09-10T08:58:39.813Z,60.90
2017-09-10T09:01:08.212Z,61.60
2017-09-10T09:03:35.817Z,61.60
2017-09-10T09:06:03.469Z,61.00
2017-09-10T09:08:31.078Z,61.70
2017-09-10T09:10:59.470Z,62.20
2017-09-10T09:13:27.836Z,60.60
2017-09-10T09:15:56.255Z,62.40
2017-09-10T09:18:23.860Z,62.30
2017-09-10T09:20:51.490Z,61.70
2017-09-10T09:23:19.087Z,62.50
2017-09-10T09:25:47.494Z,62.20
2017-09-10T09:28:15.089Z,62.00
2017-09-10T09:30:42.714Z,62.30
2017-09-10T09:33:10.325Z,62.00
2017-09-10T09:35:37.939Z,61.40
2017-09-10T09:38:05.571Z,62.10
2017-09-10T09:40:33.573Z,62.60
2017-09-10T09:43:01.198Z,62.90
2017-09-10T09:45:28.802Z,64.90
2017-09-10T09:47:56.440Z,64.10
2017-09-10T09:50:24.068Z,63.60
2017-09-10T09:52:51.685Z,62.90
2017-09-10T09:55:19.293Z,63.30
2017-09-10T09:57:46.931Z,63.60
2017-09-10T10:00:14.533Z,64.30
2017-09-10T10:02:42.921Z,62.30
2017-09-10T10:05:11.280Z,62.40
2017-09-10T10:07:38.913Z,62.40
2017-09-10T10:10:06.516Z,63.60
2017-09-10T10:12:34.915Z,61.40
2017-09-10T10:15:02.558Z,61.20
2017-09-10T10:17:32.282Z,61.60
2017-09-10T10:19:59.888Z,61.40
2017-09-10T10:22:27.521Z,59.60
2017-09-10T10:24:55.133Z,61.00
2017-09-10T10:27:22.777Z,60.40
2017-09-10T10:29:50.391Z,60.50
2017-09-10T10:32:18.402Z,62.10
2017-09-10T10:34:46.026Z,61.80
2017-09-10T10:37:13.620Z,62.40
2017-09-10T10:39:41.262Z,60.70
2017-09-10T10:42:09.291Z,61.90
2017-09-10T10:44:37.674Z,60.70
2017-09-10T10:47:06.243Z,62.00
2017-09-10T10:49:33.860Z,62.00
2017-09-10T10:52:01.460Z,59.00
2017-09-10T10:54:29.083Z,62.80
2017-09-10T10:56:56.676Z,62.70
2017-09-10T10:59:24.296Z,58.10
2017-09-10T11:01:51.883Z,59.90
2017-09-10T11:04:19.537Z,58.60
2017-09-10T11:06:47.149Z,59.60
2017-09-10T11:09:15.538Z,60.20
2017-09-10T11:11:43.146Z,60.10
2017-09-10T11:14:10.776Z,62.00
2017-09-10T11:16:38.365Z,61.30
2017-09-10T11:19:06.012Z,62.20
2017-09-10T11:21:33.620Z,61.90
2017-09-10T11:24:01.986Z,61.20
2017-09-10T11:26:29.592Z,61.20
2017-09-10T11:28:57.218Z,61.40
2017-09-10T11:31:24.832Z,61.60
2017-09-10T11:33:52.452Z,59.90
2017-09-10T11:36:22.679Z,60.60
2017-09-10T11:38:50.632Z,60.50
2017-09-10T11:41:19.014Z,61.00
2017-09-10T11:43:47.371Z,59.40
2017-09-10T11:46:14.999Z,59.40
2017-09-10T11:48:42.593Z,62.20
2017-09-10T11:51:10.245Z,62.20
2017-09-10T11:53:39.835Z,62.60
2017-09-10T11:56:07.460Z,61.80
2017-09-10T11:58:35.059Z,60.70
2017-09-10T12:01:02.680Z,61.30
2017-09-10T12:03:33.511Z,61.20
2017-09-10T12:06:01.899Z,61.20
2017-09-10T12:08:30.256Z,61.80
2017-09-10T12:10:57.894Z,61.80
2017-09-10T12:13:25.498Z,62.40
2017-09-10T12:15:56.845Z,63.00
2017-09-10T12:18:24.469Z,63.00
2017-09-10T12:20:52.102Z,63.00
2017-09-10T12:23:19.753Z,62.40
2017-09-10T12:25:47.369Z,61.00
2017-09-10T12:28:14.986Z,62.20
2017-09-10T12:30:42.580Z,62.30
2017-09-10T12:33:10.290Z,62.10
2017-09-10T12:35:37.889Z,61.50
2017-09-10T12:38:05.518Z,60.40
2017-09-10T12:40:33.132Z,62.00
2017-09-10T12:43:01.654Z,62.10
2017-09-10T12:45:29.290Z,61.90
2017-09-10T12:47:57.675Z,62.30
2017-09-10T12:50:26.057Z,62.90
2017-09-10T12:52:54.451Z,63.90
2017-09-10T12:55:22.043Z,63.80
2017-09-10T12:57:49.661Z,62.70
2017-09-10T13:00:18.041Z,62.10
2017-09-10T13:02:46.449Z,62.60
2017-09-10T13:05:14.060Z,62.60
2017-09-10T13:07:42.460Z,64.80
2017-09-10T13:10:16.971Z,62.20
2017-09-10T13:12:50.674Z,62.20
2017-09-10T13:15:24.598Z,60.80
2017-09-10T13:17:59.113Z,62.10
2017-09-10T13:20:32.789Z,62.00
2017-09-10T13:23:06.668Z,61.30
2017-09-10T13:25:40.406Z,60.20
2017-09-10T13:28:08.029Z,61.00
2017-09-10T13:30:35.616Z,60.50
2017-09-10T13:33:04.353Z,59.90
2017-09-10T13:35:31.936Z,59.40
2017-09-10T13:37:59.561Z,60.40
2017-09-10T13:40:27.160Z,62.90
2017-09-10T13:42:54.757Z,61.30
2017-09-10T13:45:23.142Z,58.80
2017-09-10T13:47:51.539Z,59.60
2017-09-10T13:50:19.912Z,58.30
2017-09-10T13:52:47.531Z,58.30
2017-09-10T13:55:15.175Z,58.20
2017-09-10T13:57:42.894Z,57.70
2017-09-10T14:00:11.294Z,57.40
2017-09-10T14:02:38.906Z,57.30
2017-09-10T14:05:06.532Z,58.70
2017-09-10T14:07:34.133Z,59.60
2017-09-10T14:10:01.741Z,56.30
2017-09-10T14:12:29.357Z,57.50
2017-09-10T14:14:58.351Z,57.20
2017-09-10T14:17:25.968Z,55.30
2017-09-10T14:19:53.600Z,56.30
2017-09-10T14:22:21.224Z,55.80
2017-09-10T14:24:48.840Z,55.30
2017-09-10T14:27:16.437Z,56.30
2017-09-10T14:29:44.055Z,56.20
2017-09-10T14:32:11.737Z,56.90
2017-09-10T14:34:39.381Z,55.80
2017-09-10T14:37:07.033Z,57.60
2017-09-10T14:39:35.399Z,56.80
2017-09-10T14:42:03.785Z,58.30
2017-09-10T14:44:31.392Z,58.30
2017-09-10T14:46:59.032Z,57.80
2017-09-10T14:49:26.663Z,57.20
2017-09-10T14:51:55.032Z,57.40
2017-09-10T14:54:23.433Z,55.80
2017-09-10T14:56:51.057Z,55.80
2017-09-10T14:59:18.652Z,56.90
2017-09-10T15:01:46.286Z,58.30
2017-09-10T15:04:13.886Z,57.50
2017-09-10T15:06:41.504Z,54.90
2017-09-10T15:09:09.087Z,57.30
2017-09-10T15:11:36.872Z,56.70
2017-09-10T15:14:04.478Z,57.00
2017-09-10T15:16:32.100Z,57.60
2017-09-10T15:18:59.691Z,57.50
2017-09-10T15:21:27.286Z,56.80
2017-09-10T15:23:56.484Z,57.00
2017-09-10T15:26:25.207Z,56.50
2017-09-10T15:28:52.820Z,56.20
2017-09-10T15:31:20.888Z,57.20
2017-09-10T15:33:48.518Z,57.80
2017-09-10T15:36:16.145Z,58.50
2017-09-10T15:38:43.756Z,58.70
2017-09-10T15:41:11.352Z,58.90
2017-09-10T15:43:39.727Z,57.90
2017-09-10T15:46:08.095Z,59.20
2017-09-10T15:48:35.721Z,59.20
2017-09-10T15:51:03.307Z,59.40
2017-09-10T15:53:30.927Z,58.80
2017-09-10T15:55:58.534Z,58.90
2017-09-10T15:58:26.156Z,58.10
2017-09-10T16:00:53.776Z,58.50
2017-09-10T16:03:22.173Z,58.10
2017-09-10T16:05:49.774Z,58.00
2017-09-10T16:08:17.406Z,57.60
2017-09-10T16:10:45.024Z,57.60
2017-09-10T16:13:13.410Z,57.70
2017-09-10T16:15:41.799Z,57.50
2017-09-10T16:18:10.166Z,57.40
2017-09-10T16:20:38.548Z,57.80
2017-09-10T16:23:06.923Z,57.20
2017-09-10T16:25:35.423Z,57.20
2017-09-10T16:28:03.038Z,57.10
2017-09-10T16:30:30.647Z,57.10
2017-09-10T16:32:58.249Z,57.20
2017-09-10T16:35:25.877Z,56.00
2017-09-10T16:37:53.512Z,57.10
2017-09-10T16:40:21.905Z,58.30
2017-09-10T16:42:50.267Z,58.30
2017-09-10T16:45:18.654Z,57.40
2017-09-10T16:47:47.010Z,58.30
2017-09-10T16:50:15.425Z,59.30
2017-09-10T16:52:43.051Z,59.20
2017-09-10T16:55:10.666Z,59.90
2017-09-10T16:57:38.278Z,59.30
2017-09-10T17:00:06.676Z,59.70
2017-09-10T17:02:35.043Z,58.50
2017-09-10T17:05:03.442Z,58.40
2017-09-10T17:07:31.793Z,58.40
2017-09-10T17:10:00.185Z,60.60
2017-09-10T17:12:28.544Z,61.20
2017-09-10T17:14:56.153Z,61.10
2017-09-10T17:17:23.768Z,60.60
2017-09-10T17:19:51.365Z,61.30
2017-09-10T17:22:19.005Z,59.50
2017-09-10T17:24:47.370Z,62.20
2017-09-10T17:27:15.002Z,62.20
2017-09-10T17:29:42.588Z,61.70
2017-09-10T17:32:10.215Z,60.20
2017-09-10T17:34:37.810Z,61.50
2017-09-10T17:37:05.436Z,62.20
2017-09-10T17:39:33.826Z,62.10
2017-09-10T17:42:01.444Z,62.10
2017-09-10T17:44:29.821Z,61.80
2017-09-10T17:46:57.461Z,61.80
2017-09-10T17:49:25.817Z,62.40
2017-09-10T17:51:53.775Z,62.40
2017-09-10T17:54:21.465Z,63.00
2017-09-10T17:56:49.854Z,62.50
2017-09-10T17:59:18.228Z,64.40
2017-09-10T18:01:45.849Z,64.40
2017-09-10T18:04:13.489Z,63.30
2017-09-10T18:06:41.137Z,65.30
2017-09-10T18:09:08.757Z,65.30
2017-09-10T18:11:36.358Z,65.00
2017-09-10T18:14:04.014Z,65.80
2017-09-10T18:16:31.612Z,66.00
2017-09-10T18:18:59.232Z,66.00
2017-09-10T18:21:27.601Z,64.60
2017-09-10T18:23:55.976Z,65.70
2017-09-10T18:26:24.359Z,65.60
2017-09-10T18:28:52.753Z,65.30
2017-09-10T18:31:20.365Z,65.30
2017-09-10T18:33:47.989Z,66.00
2017-09-10T18:36:15.686Z,64.90
2017-09-10T18:38:43.316Z,65.50
2017-09-10T18:41:10.918Z,65.80
2017-09-10T18:43:38.586Z,66.20
2017-09-10T18:46:06.180Z,65.50
2017-09-10T18:48:33.810Z,64.90
2017-09-10T18:51:01.417Z,66.20
2017-09-10T18:53:29.077Z,66.50
2017-09-10T18:55:56.695Z,66.90
2017-09-10T18:58:24.306Z,67.40
2017-09-10T19:00:51.970Z,67.20
2017-09-10T19:03:19.580Z,66.60
2017-09-10T19:05:47.971Z,67.10
2017-09-10T19:08:15.577Z,67.10
2017-09-10T19:10:43.197Z,67.30
2017-09-10T19:13:11.553Z,65.80
2017-09-10T19:15:39.175Z,65.80
2017-09-10T19:18:06.794Z,65.70
2017-09-10T19:20:35.170Z,66.30
2017-09-10T19:23:03.524Z,66.70
2017-09-10T19:25:31.417Z,66.60
2017-09-10T19:27:59.817Z,67.50
2017-09-10T19:30:27.686Z,67.50
2017-09-10T19:32:55.298Z,67.80
2017-09-10T19:35:22.958Z,68.30
2017-09-10T19:37:50.550Z,68.80
2017-09-10T19:40:18.924Z,68.50
2017-09-10T19:42:46.544Z,68.50
2017-09-10T19:45:14.174Z,68.70
2017-09-10T19:47:41.795Z,68.60
2017-09-10T19:50:09.425Z,68.90
2017-09-10T19:52:37.026Z,68.80
2017-09-10T19:55:05.392Z,69.20
2017-09-10T19:57:33.022Z,69.10
2017-09-10T20:00:00.793Z,68.90
2017-09-10T20:02:28.476Z,69.00
2017-09-10T20:04:56.074Z,68.90
2017-09-10T20:07:23.714Z,69.70
2017-09-10T20:09:52.081Z,70.00
2017-09-10T20:12:19.712Z,69.20
2017-09-10T20:14:47.334Z,68.90
2017-09-10T20:17:14.964Z,68.90
2017-09-10T20:19:42.601Z,69.20
2017-09-10T20:22:10.236Z,69.40
2017-09-10T20:24:37.834Z,69.20
2017-09-10T20:27:05.452Z,69.30
2017-09-10T20:29:33.054Z,69.40
2017-09-10T20:32:00.696Z,69.30
2017-09-10T20:34:28.309Z,69.50
2017-09-10T20:36:56.685Z,69.80
2017-09-10T20:39:24.281Z,69.70
2017-09-10T20:41:51.902Z,69.60
2017-09-10T20:44:20.490Z,70.10
2017-09-10T20:46:48.152Z,70.10
2017-09-10T20:49:16.515Z,70.10
2017-09-10T20:51:44.121Z,70.00
2017-09-10T20:54:11.742Z,70.20
2017-09-10T20:56:40.129Z,70.40
2017-09-10T20:59:08.520Z,70.10
2017-09-10T21:01:36.137Z,70.00
2017-09-10T21:04:03.760Z,70.00
2017-09-10T21:06:31.350Z,70.10
2017-09-10T21:08:58.990Z,69.40
2017-09-10T21:11:26.621Z,69.20
2017-09-10T21:13:55.222Z,68.60
2017-09-10T21:16:22.812Z,68.70
2017-09-10T21:18:50.429Z,67.40
2017-09-10T21:21:18.062Z,66.40
2017-09-10T21:23:45.690Z,65.80
2017-09-10T21:26:13.280Z,64.80
2017-09-10T21:28:40.891Z,64.70
2017-09-10T21:31:08.483Z,64.40
2017-09-10T21:33:36.118Z,64.50
2017-09-10T21:36:03.715Z,64.40
2017-09-10T21:38:31.362Z,64.50
2017-09-10T21:40:58.960Z,63.90
2017-09-10T21:43:27.328Z,63.80
2017-09-10T21:45:55.748Z,64.10
2017-09-10T21:48:23.346Z,64.00
2017-09-10T21:50:50.964Z,64.20
2017-09-10T21:53:18.575Z,63.40
2017-09-10T21:55:46.981Z,64.30
2017-09-10T21:58:15.339Z,64.50
2017-09-10T22:00:42.955Z,64.50
2017-09-10T22:03:10.573Z,64.70
2017-09-10T22:05:38.988Z,64.60
2017-09-10T22:08:06.588Z,64.60
2017-09-10T22:10:34.216Z,65.00
2017-09-10T22:13:01.810Z,65.70
2017-09-10T22:15:29.433Z,65.40
2017-09-10T22:17:57.038Z,64.10
2017-09-10T22:20:24.655Z,64.00
2017-09-10T22:22:52.247Z,64.20
2017-09-10T22:25:19.893Z,63.50
2017-09-10T22:27:47.498Z,63.70
2017-09-10T22:30:15.117Z,64.70
2017-09-10T22:32:42.722Z,64.90
2017-09-10T22:35:11.131Z,64.10
2017-09-10T22:37:38.738Z,63.50
2017-09-10T22:40:06.330Z,63.40
2017-09-10T22:42:34.717Z,64.80
2017-09-10T22:45:02.330Z,64.00
2017-09-10T22:47:29.971Z,63.30
2017-09-10T22:49:57.612Z,63.40
2017-09-10T22:52:26.023Z,63.00
2017-09-10T22:54:53.631Z,63.00
2017-09-10T22:57:22.016Z,63.50
2017-09-10T22:59:49.639Z,63.50
2017-09-10T23:02:17.269Z,63.50
2017-09-10T23:16:45.513Z,63.80
2017-09-10T23:19:13.142Z,63.80
2017-09-10T23:21:41.514Z,63.90
2017-09-10T23:24:09.955Z,64.20
2017-09-10T23:26:37.557Z,64.20
2017-09-10T23:29:05.166Z,63.80
2017-09-10T23:31:32.766Z,63.50
2017-09-10T23:34:00.387Z,64.20
2017-09-10T23:36:27.967Z,63.50
2017-09-10T23:38:56.108Z,63.00
2017-09-10T23:41:23.705Z,63.40
2017-09-10T23:43:51.324Z,63.20
2017-09-10T23:46:19.682Z,63.90
2017-09-10T23:48:48.085Z,63.90
2017-09-10T23:51:15.676Z,63.80
2017-09-10T23:53:43.293Z,63.50
2017-09-10T23:56:11.679Z,63.40
2017-09-10T23:58:39.281Z,63.40
